sensor_id;sensor_type;location;lat;lon;timestamp;pressure;altitude;pressure_sealevel;temperature;humidity
31911;BME280;18457;52.432;16.914;2023-03-22T00:02:26;100228.96;;;10.97;82.14
31911;BME280;18457;52.432;16.914;2023-03-22T00:05:00;100223.10;;;10.94;82.44
31911;BME280;18457;52.432;16.914;2023-03-22T00:07:32;100225.17;;;10.97;82.23
31911;BME280;18457;52.432;16.914;2023-03-22T00:10:05;100228.40;;;10.98;82.12
31911;BME280;18457;52.432;16.914;2023-03-22T00:12:37;100224.80;;;10.97;82.18
31911;BME280;18457;52.432;16.914;2023-03-22T00:15:11;100220.09;;;10.98;82.13
31911;BME280;18457;52.432;16.914;2023-03-22T00:17:44;100218.23;;;10.99;82.26
31911;BME280;18457;52.432;16.914;2023-03-22T00:20:17;100219.38;;;10.98;82.17
31911;BME280;18457;52.432;16.914;2023-03-22T00:22:53;100217.69;;;10.99;82.28
31911;BME280;18457;52.432;16.914;2023-03-22T00:25:25;100212.08;;;11.00;82.26
31911;BME280;18457;52.432;16.914;2023-03-22T00:27:57;100208.85;;;10.98;82.42
31911;BME280;18457;52.432;16.914;2023-03-22T00:30:51;100205.95;;;10.99;82.42
31911;BME280;18457;52.432;16.914;2023-03-22T00:33:23;100199.35;;;10.96;82.37
31911;BME280;18457;52.432;16.914;2023-03-22T00:35:58;100199.80;;;10.99;82.36
31911;BME280;18457;52.432;16.914;2023-03-22T00:38:30;100195.23;;;11.01;82.47
31911;BME280;18457;52.432;16.914;2023-03-22T00:41:14;100192.55;;;11.00;82.55
31911;BME280;18457;52.432;16.914;2023-03-22T00:43:48;100184.99;;;10.98;82.53
31911;BME280;18457;52.432;16.914;2023-03-22T00:46:20;100189.20;;;10.97;82.44
31911;BME280;18457;52.432;16.914;2023-03-22T00:48:52;100187.89;;;10.98;82.39
31911;BME280;18457;52.432;16.914;2023-03-22T00:51:24;100184.13;;;10.97;82.36
31911;BME280;18457;52.432;16.914;2023-03-22T00:53:56;100180.58;;;10.95;82.45
31911;BME280;18457;52.432;16.914;2023-03-22T00:56:28;100178.74;;;10.96;82.18
31911;BME280;18457;52.432;16.914;2023-03-22T00:59:09;100173.34;;;10.95;82.41
31911;BME280;18457;52.432;16.914;2023-03-22T01:01:43;100163.66;;;10.93;82.35
31911;BME280;18457;52.432;16.914;2023-03-22T01:04:15;100169.69;;;10.97;82.36
31911;BME280;18457;52.432;16.914;2023-03-22T01:06:48;100169.49;;;10.97;82.25
31911;BME280;18457;52.432;16.914;2023-03-22T01:09:20;100172.77;;;10.97;82.18
31911;BME280;18457;52.432;16.914;2023-03-22T01:11:54;100168.92;;;10.98;82.11
31911;BME280;18457;52.432;16.914;2023-03-22T01:14:28;100172.42;;;10.96;82.30
31911;BME280;18457;52.432;16.914;2023-03-22T01:17:01;100169.16;;;10.97;82.17
31911;BME280;18457;52.432;16.914;2023-03-22T01:19:36;100171.06;;;10.99;82.22
31911;BME280;18457;52.432;16.914;2023-03-22T01:22:12;100168.46;;;11.01;82.07
31911;BME280;18457;52.432;16.914;2023-03-22T01:24:46;100164.37;;;10.99;82.34
31911;BME280;18457;52.432;16.914;2023-03-22T01:27:20;100166.70;;;10.99;82.48
31911;BME280;18457;52.432;16.914;2023-03-22T01:29:53;100158.32;;;11.02;82.85
31911;BME280;18457;52.432;16.914;2023-03-22T01:32:29;100149.62;;;11.02;83.20
31911;BME280;18457;52.432;16.914;2023-03-22T01:35:08;100141.04;;;11.00;83.91
31911;BME280;18457;52.432;16.914;2023-03-22T01:37:42;100134.00;;;10.99;84.51
31911;BME280;18457;52.432;16.914;2023-03-22T01:40:21;100133.83;;;10.99;84.76
31911;BME280;18457;52.432;16.914;2023-03-22T01:42:56;100134.55;;;10.99;84.65
31911;BME280;18457;52.432;16.914;2023-03-22T01:45:39;100124.80;;;10.98;84.55
31911;BME280;18457;52.432;16.914;2023-03-22T01:48:25;100122.88;;;10.96;84.59
31911;BME280;18457;52.432;16.914;2023-03-22T01:51:10;100122.61;;;10.99;84.55
31911;BME280;18457;52.432;16.914;2023-03-22T01:54:02;100117.73;;;10.99;84.34
31911;BME280;18457;52.432;16.914;2023-03-22T01:56:40;100116.80;;;11.00;84.33
31911;BME280;18457;52.432;16.914;2023-03-22T01:59:17;100116.59;;;11.01;84.11
31911;BME280;18457;52.432;16.914;2023-03-22T02:02:11;100110.42;;;11.01;84.44
31911;BME280;18457;52.432;16.914;2023-03-22T02:04:46;100110.49;;;11.00;85.08
31911;BME280;18457;52.432;16.914;2023-03-22T02:07:21;100107.00;;;11.02;85.42
31911;BME280;18457;52.432;16.914;2023-03-22T02:09:58;100103.44;;;11.00;85.81
31911;BME280;18457;52.432;16.914;2023-03-22T02:12:45;100101.67;;;10.99;86.30
31911;BME280;18457;52.432;16.914;2023-03-22T02:15:35;100099.55;;;10.97;86.97
31911;BME280;18457;52.432;16.914;2023-03-22T02:18:45;100096.67;;;10.96;88.12
31911;BME280;18457;52.432;16.914;2023-03-22T02:27:48;100097.61;;;10.89;89.63
31911;BME280;18457;52.432;16.914;2023-03-22T02:30:42;100093.69;;;10.87;90.18
31911;BME280;18457;52.432;16.914;2023-03-22T02:33:32;100094.02;;;10.83;90.93
31911;BME280;18457;52.432;16.914;2023-03-22T02:36:25;100091.33;;;10.82;91.23
31911;BME280;18457;52.432;16.914;2023-03-22T02:39:17;100093.39;;;10.80;91.79
31911;BME280;18457;52.432;16.914;2023-03-22T02:42:07;100099.72;;;10.80;91.75
31911;BME280;18457;52.432;16.914;2023-03-22T02:44:44;100093.41;;;10.79;92.18
31911;BME280;18457;52.432;16.914;2023-03-22T02:47:24;100097.77;;;10.79;92.41
31911;BME280;18457;52.432;16.914;2023-03-22T02:50:06;100096.05;;;10.76;92.94
31911;BME280;18457;52.432;16.914;2023-03-22T02:52:42;100095.86;;;10.76;93.43
31911;BME280;18457;52.432;16.914;2023-03-22T02:55:19;100092.61;;;10.76;93.66
31911;BME280;18457;52.432;16.914;2023-03-22T02:57:55;100091.77;;;10.73;94.06
31911;BME280;18457;52.432;16.914;2023-03-22T03:00:29;100091.77;;;10.74;94.29
31911;BME280;18457;52.432;16.914;2023-03-22T03:03:05;100094.46;;;10.74;94.78
31911;BME280;18457;52.432;16.914;2023-03-22T03:05:44;100090.43;;;10.70;95.24
31911;BME280;18457;52.432;16.914;2023-03-22T03:08:18;100093.77;;;10.67;95.52
31911;BME280;18457;52.432;16.914;2023-03-22T03:10:52;100094.95;;;10.64;96.01
31911;BME280;18457;52.432;16.914;2023-03-22T03:13:24;100094.77;;;10.64;96.07
31911;BME280;18457;52.432;16.914;2023-03-22T03:15:58;100092.03;;;10.65;96.45
31911;BME280;18457;52.432;16.914;2023-03-22T03:18:40;100097.50;;;10.63;96.96
31911;BME280;18457;52.432;16.914;2023-03-22T03:21:23;100095.67;;;10.64;97.25
31911;BME280;18457;52.432;16.914;2023-03-22T03:24:09;100098.25;;;10.62;97.54
31911;BME280;18457;52.432;16.914;2023-03-22T03:26:52;100093.61;;;10.60;98.26
31911;BME280;18457;52.432;16.914;2023-03-22T03:29:35;100095.98;;;10.59;98.46
31911;BME280;18457;52.432;16.914;2023-03-22T03:32:13;100095.02;;;10.61;98.66
31911;BME280;18457;52.432;16.914;2023-03-22T03:34:51;100092.36;;;10.60;98.90
31911;BME280;18457;52.432;16.914;2023-03-22T03:37:29;100090.21;;;10.59;99.52
31911;BME280;18457;52.432;16.914;2023-03-22T03:40:08;100092.73;;;10.59;99.65
31911;BME280;18457;52.432;16.914;2023-03-22T03:42:45;100092.80;;;10.57;99.93
31911;BME280;18457;52.432;16.914;2023-03-22T03:45:20;100088.98;;;10.58;99.85
31911;BME280;18457;52.432;16.914;2023-03-22T03:47:56;100083.99;;;10.56;99.90
31911;BME280;18457;52.432;16.914;2023-03-22T03:50:28;100087.34;;;10.59;100.00
31911;BME280;18457;52.432;16.914;2023-03-22T03:53:01;100084.48;;;10.57;100.00
31911;BME280;18457;52.432;16.914;2023-03-22T03:55:34;100083.70;;;10.60;100.00
31911;BME280;18457;52.432;16.914;2023-03-22T03:58:07;100079.10;;;10.56;100.00
31911;BME280;18457;52.432;16.914;2023-03-22T04:00:39;100081.78;;;10.57;100.00
31911;BME280;18457;52.432;16.914;2023-03-22T04:03:25;100079.47;;;10.56;100.00
31911;BME280;18457;52.432;16.914;2023-03-22T04:06:17;100071.71;;;10.56;100.00
31911;BME280;18457;52.432;16.914;2023-03-22T04:08:52;100067.09;;;10.53;100.00
31911;BME280;18457;52.432;16.914;2023-03-22T04:11:28;100068.86;;;10.54;100.00
31911;BME280;18457;52.432;16.914;2023-03-22T04:14:02;100066.44;;;10.57;100.00
31911;BME280;18457;52.432;16.914;2023-03-22T04:16:34;100062.10;;;10.57;100.00
31911;BME280;18457;52.432;16.914;2023-03-22T04:19:07;100062.10;;;10.57;100.00
31911;BME280;18457;52.432;16.914;2023-03-22T04:21:39;100062.69;;;10.55;100.00
31911;BME280;18457;52.432;16.914;2023-03-22T04:24:11;100071.05;;;10.54;100.00
31911;BME280;18457;52.432;16.914;2023-03-22T04:26:45;100070.76;;;10.51;100.00
31911;BME280;18457;52.432;16.914;2023-03-22T04:29:39;100070.95;;;10.51;100.00
31911;BME280;18457;52.432;16.914;2023-03-22T04:32:53;100071.36;;;10.49;100.00
31911;BME280;18457;52.432;16.914;2023-03-22T04:35:33;100074.55;;;10.45;100.00
31911;BME280;18457;52.432;16.914;2023-03-22T04:38:06;100071.05;;;10.47;100.00
31911;BME280;18457;52.432;16.914;2023-03-22T04:40:39;100073.95;;;10.47;100.00
31911;BME280;18457;52.432;16.914;2023-03-22T04:43:23;100064.67;;;10.37;100.00
31911;BME280;18457;52.432;16.914;2023-03-22T04:45:59;100065.48;;;10.40;100.00
31911;BME280;18457;52.432;16.914;2023-03-22T04:48:40;100067.27;;;10.41;100.00
31911;BME280;18457;52.432;16.914;2023-03-22T04:51:13;100054.35;;;10.38;100.00
31911;BME280;18457;52.432;16.914;2023-03-22T04:53:53;100063.46;;;10.41;100.00
31911;BME280;18457;52.432;16.914;2023-03-22T04:56:26;100061.57;;;10.44;100.00
31911;BME280;18457;52.432;16.914;2023-03-22T04:58:58;100063.58;;;10.43;100.00
31911;BME280;18457;52.432;16.914;2023-03-22T05:01:29;100060.95;;;10.47;100.00
31911;BME280;18457;52.432;16.914;2023-03-22T05:04:11;100067.76;;;10.49;100.00
31911;BME280;18457;52.432;16.914;2023-03-22T05:06:43;100068.38;;;10.46;100.00
31911;BME280;18457;52.432;16.914;2023-03-22T05:09:22;100065.48;;;10.46;100.00
31911;BME280;18457;52.432;16.914;2023-03-22T05:11:56;100064.66;;;10.43;100.00
31911;BME280;18457;52.432;16.914;2023-03-22T05:14:54;100061.95;;;10.37;100.00
31911;BME280;18457;52.432;16.914;2023-03-22T05:17:29;100064.20;;;10.41;100.00
31911;BME280;18457;52.432;16.914;2023-03-22T05:20:00;100066.58;;;10.46;100.00
31911;BME280;18457;52.432;16.914;2023-03-22T05:22:40;100067.45;;;10.47;100.00
31911;BME280;18457;52.432;16.914;2023-03-22T05:25:13;100070.51;;;10.47;100.00
31911;BME280;18457;52.432;16.914;2023-03-22T05:27:46;100066.06;;;10.51;100.00
31911;BME280;18457;52.432;16.914;2023-03-22T05:30:38;100066.42;;;10.51;100.00
31911;BME280;18457;52.432;16.914;2023-03-22T05:33:21;100068.86;;;10.55;100.00
31911;BME280;18457;52.432;16.914;2023-03-22T05:35:56;100057.08;;;10.56;100.00
31911;BME280;18457;52.432;16.914;2023-03-22T05:38:30;100063.41;;;10.55;100.00
31911;BME280;18457;52.432;16.914;2023-03-22T05:41:03;100076.77;;;10.55;100.00
31911;BME280;18457;52.432;16.914;2023-03-22T05:43:36;100076.76;;;10.38;100.00
31911;BME280;18457;52.432;16.914;2023-03-22T05:46:10;100079.63;;;10.38;100.00
31911;BME280;18457;52.432;16.914;2023-03-22T05:48:56;100081.42;;;10.38;100.00
31911;BME280;18457;52.432;16.914;2023-03-22T05:51:27;100080.11;;;10.40;100.00
31911;BME280;18457;52.432;16.914;2023-03-22T05:54:01;100067.98;;;10.41;100.00
31911;BME280;18457;52.432;16.914;2023-03-22T05:56:38;100075.28;;;10.44;100.00
31911;BME280;18457;52.432;16.914;2023-03-22T05:59:10;100072.90;;;10.46;100.00
31911;BME280;18457;52.432;16.914;2023-03-22T06:01:41;100080.73;;;10.50;100.00
31911;BME280;18457;52.432;16.914;2023-03-22T06:04:23;100082.05;;;10.55;100.00
31911;BME280;18457;52.432;16.914;2023-03-22T06:07:08;100082.62;;;10.60;100.00
31911;BME280;18457;52.432;16.914;2023-03-22T06:09:50;100084.58;;;10.61;100.00
31911;BME280;18457;52.432;16.914;2023-03-22T06:12:25;100086.64;;;10.64;100.00
31911;BME280;18457;52.432;16.914;2023-03-22T06:15:10;100091.16;;;10.64;100.00
31911;BME280;18457;52.432;16.914;2023-03-22T06:18:02;100091.93;;;10.68;100.00
31911;BME280;18457;52.432;16.914;2023-03-22T06:20:39;100091.29;;;10.59;100.00
31911;BME280;18457;52.432;16.914;2023-03-22T06:23:22;100091.92;;;10.63;100.00
31911;BME280;18457;52.432;16.914;2023-03-22T06:25:54;100087.79;;;10.56;100.00
31911;BME280;18457;52.432;16.914;2023-03-22T06:28:26;100088.30;;;10.63;100.00
31911;BME280;18457;52.432;16.914;2023-03-22T06:31:06;100086.13;;;10.69;100.00
31911;BME280;18457;52.432;16.914;2023-03-22T06:34:05;100087.20;;;10.75;100.00
31911;BME280;18457;52.432;16.914;2023-03-22T06:36:43;100081.56;;;10.83;100.00
31911;BME280;18457;52.432;16.914;2023-03-22T06:39:34;100089.62;;;10.91;100.00
31911;BME280;18457;52.432;16.914;2023-03-22T06:42:06;100093.36;;;10.87;100.00
31911;BME280;18457;52.432;16.914;2023-03-22T06:44:38;100097.95;;;10.84;100.00
31911;BME280;18457;52.432;16.914;2023-03-22T06:47:19;100091.04;;;10.86;100.00
31911;BME280;18457;52.432;16.914;2023-03-22T06:50:00;100089.59;;;10.92;100.00
31911;BME280;18457;52.432;16.914;2023-03-22T06:52:52;100089.17;;;10.93;100.00
31911;BME280;18457;52.432;16.914;2023-03-22T06:55:24;100091.27;;;10.96;100.00
31911;BME280;18457;52.432;16.914;2023-03-22T06:58:02;100092.46;;;10.98;100.00
31911;BME280;18457;52.432;16.914;2023-03-22T07:00:32;100094.27;;;11.05;100.00
31911;BME280;18457;52.432;16.914;2023-03-22T07:03:05;100091.67;;;11.00;100.00
31911;BME280;18457;52.432;16.914;2023-03-22T07:05:58;100092.15;;;11.08;100.00
31911;BME280;18457;52.432;16.914;2023-03-22T07:08:33;100091.91;;;10.98;100.00
31911;BME280;18457;52.432;16.914;2023-03-22T07:11:07;100082.71;;;11.03;100.00
31911;BME280;18457;52.432;16.914;2023-03-22T07:13:40;100084.31;;;11.10;100.00
31911;BME280;18457;52.432;16.914;2023-03-22T07:16:14;100087.31;;;11.12;100.00
31911;BME280;18457;52.432;16.914;2023-03-22T07:18:53;100093.09;;;11.18;100.00
31911;BME280;18457;52.432;16.914;2023-03-22T07:21:28;100094.27;;;11.21;100.00
31911;BME280;18457;52.432;16.914;2023-03-22T07:24:04;100092.86;;;11.25;100.00
31911;BME280;18457;52.432;16.914;2023-03-22T07:26:37;100088.59;;;11.29;100.00
31911;BME280;18457;52.432;16.914;2023-03-22T07:29:10;100088.73;;;11.36;100.00
31911;BME280;18457;52.432;16.914;2023-03-22T07:31:42;100079.37;;;11.46;100.00
31911;BME280;18457;52.432;16.914;2023-03-22T07:34:31;100072.39;;;11.54;100.00
31911;BME280;18457;52.432;16.914;2023-03-22T07:37:08;100071.21;;;11.63;100.00
31911;BME280;18457;52.432;16.914;2023-03-22T07:39:40;100066.92;;;11.67;100.00
31911;BME280;18457;52.432;16.914;2023-03-22T07:42:13;100070.91;;;11.67;100.00
31911;BME280;18457;52.432;16.914;2023-03-22T07:44:47;100066.27;;;11.70;100.00
31911;BME280;18457;52.432;16.914;2023-03-22T07:47:22;100067.08;;;11.68;100.00
31911;BME280;18457;52.432;16.914;2023-03-22T07:50:31;100072.55;;;11.60;100.00
31911;BME280;18457;52.432;16.914;2023-03-22T07:53:05;100070.92;;;11.60;100.00
31911;BME280;18457;52.432;16.914;2023-03-22T07:55:38;100070.86;;;11.69;100.00
31911;BME280;18457;52.432;16.914;2023-03-22T07:58:11;100068.50;;;11.79;100.00
31911;BME280;18457;52.432;16.914;2023-03-22T08:00:45;100066.23;;;11.92;100.00
31911;BME280;18457;52.432;16.914;2023-03-22T08:03:39;100070.89;;;12.04;99.98
31911;BME280;18457;52.432;16.914;2023-03-22T08:06:23;100075.56;;;12.15;98.70
31911;BME280;18457;52.432;16.914;2023-03-22T08:08:55;100068.34;;;12.09;98.20
31911;BME280;18457;52.432;16.914;2023-03-22T08:11:28;100074.56;;;12.17;98.04
31911;BME280;18457;52.432;16.914;2023-03-22T08:14:01;100073.17;;;12.21;97.65
31911;BME280;18457;52.432;16.914;2023-03-22T08:16:34;100071.42;;;12.14;96.86
31911;BME280;18457;52.432;16.914;2023-03-22T08:19:09;100070.77;;;12.07;97.29
31911;BME280;18457;52.432;16.914;2023-03-22T08:21:41;100067.41;;;12.05;97.15
31911;BME280;18457;52.432;16.914;2023-03-22T08:24:22;100070.52;;;12.14;95.82
31911;BME280;18457;52.432;16.914;2023-03-22T08:27:03;100070.88;;;12.19;96.09
31911;BME280;18457;52.432;16.914;2023-03-22T08:29:43;100068.52;;;12.24;96.24
31911;BME280;18457;52.432;16.914;2023-03-22T08:32:18;100073.27;;;12.33;95.64
31911;BME280;18457;52.432;16.914;2023-03-22T08:34:48;100071.98;;;12.34;94.74
31911;BME280;18457;52.432;16.914;2023-03-22T08:37:20;100068.52;;;12.35;94.40
31911;BME280;18457;52.432;16.914;2023-03-22T08:39:52;100069.71;;;12.36;94.39
31911;BME280;18457;52.432;16.914;2023-03-22T08:42:28;100060.77;;;12.42;93.82
31911;BME280;18457;52.432;16.914;2023-03-22T08:45:04;100054.77;;;12.43;94.71
31911;BME280;18457;52.432;16.914;2023-03-22T08:47:38;100057.98;;;12.49;93.79
31911;BME280;18457;52.432;16.914;2023-03-22T08:50:11;100058.67;;;12.50;93.10
31911;BME280;18457;52.432;16.914;2023-03-22T08:52:51;100059.05;;;12.50;92.78
31911;BME280;18457;52.432;16.914;2023-03-22T08:55:32;100060.17;;;12.49;91.89
31911;BME280;18457;52.432;16.914;2023-03-22T08:58:12;100060.45;;;12.41;91.64
31911;BME280;18457;52.432;16.914;2023-03-22T09:01:17;100057.80;;;12.49;91.53
31911;BME280;18457;52.432;16.914;2023-03-22T09:03:56;100055.05;;;12.59;91.43
31911;BME280;18457;52.432;16.914;2023-03-22T09:06:28;100056.53;;;12.68;91.25
31911;BME280;18457;52.432;16.914;2023-03-22T09:08:59;100052.88;;;12.69;90.47
31911;BME280;18457;52.432;16.914;2023-03-22T09:11:31;100063.34;;;12.61;89.90
31911;BME280;18457;52.432;16.914;2023-03-22T09:14:05;100055.29;;;12.59;89.81
31911;BME280;18457;52.432;16.914;2023-03-22T09:16:37;100063.89;;;12.65;89.85
31911;BME280;18457;52.432;16.914;2023-03-22T09:19:09;100058.95;;;12.67;89.53
31911;BME280;18457;52.432;16.914;2023-03-22T09:21:40;100057.52;;;12.62;87.66
31911;BME280;18457;52.432;16.914;2023-03-22T09:24:18;100058.66;;;12.64;88.00
31911;BME280;18457;52.432;16.914;2023-03-22T09:26:54;100060.89;;;12.68;87.82
31911;BME280;18457;52.432;16.914;2023-03-22T09:29:30;100058.64;;;12.61;87.54
31911;BME280;18457;52.432;16.914;2023-03-22T09:32:05;100060.05;;;12.61;87.56
31911;BME280;18457;52.432;16.914;2023-03-22T09:34:39;100051.29;;;12.72;87.29
31911;BME280;18457;52.432;16.914;2023-03-22T09:37:12;100056.59;;;12.76;87.44
31911;BME280;18457;52.432;16.914;2023-03-22T09:39:51;100056.45;;;12.75;87.00
31911;BME280;18457;52.432;16.914;2023-03-22T09:42:33;100053.39;;;12.75;86.50
31911;BME280;18457;52.432;16.914;2023-03-22T09:45:14;100047.18;;;12.89;86.78
31911;BME280;18457;52.432;16.914;2023-03-22T09:47:50;100043.59;;;12.93;86.87
31911;BME280;18457;52.432;16.914;2023-03-22T09:50:25;100044.36;;;13.06;85.74
31911;BME280;18457;52.432;16.914;2023-03-22T09:52:58;100046.62;;;13.13;85.21
31911;BME280;18457;52.432;16.914;2023-03-22T09:55:31;100043.77;;;13.17;84.42
31911;BME280;18457;52.432;16.914;2023-03-22T09:58:15;100041.84;;;13.24;84.98
31911;BME280;18457;52.432;16.914;2023-03-22T10:00:54;100032.35;;;13.39;84.55
31911;BME280;18457;52.432;16.914;2023-03-22T10:03:42;100037.05;;;13.47;83.59
31911;BME280;18457;52.432;16.914;2023-03-22T10:06:22;100033.08;;;13.47;82.44
31911;BME280;18457;52.432;16.914;2023-03-22T10:09:00;100029.44;;;13.47;82.52
31911;BME280;18457;52.432;16.914;2023-03-22T10:11:42;100032.29;;;13.57;82.58
31911;BME280;18457;52.432;16.914;2023-03-22T10:14:27;100032.45;;;13.62;82.01
31911;BME280;18457;52.432;16.914;2023-03-22T10:17:03;100034.10;;;13.57;81.47
31911;BME280;18457;52.432;16.914;2023-03-22T10:19:42;100031.76;;;13.65;81.49
31911;BME280;18457;52.432;16.914;2023-03-22T10:22:18;100024.34;;;13.69;80.49
31911;BME280;18457;52.432;16.914;2023-03-22T10:24:55;100026.39;;;13.68;80.25
31911;BME280;18457;52.432;16.914;2023-03-22T10:27:29;100019.65;;;13.76;80.84
31911;BME280;18457;52.432;16.914;2023-03-22T10:30:05;100022.38;;;13.80;80.16
31911;BME280;18457;52.432;16.914;2023-03-22T10:32:43;100014.43;;;13.84;79.55
31911;BME280;18457;52.432;16.914;2023-03-22T10:35:30;100020.62;;;13.83;79.39
31911;BME280;18457;52.432;16.914;2023-03-22T10:38:05;100016.38;;;13.80;79.63
31911;BME280;18457;52.432;16.914;2023-03-22T10:40:40;100016.23;;;13.83;80.13
31911;BME280;18457;52.432;16.914;2023-03-22T10:43:18;100014.75;;;13.85;79.60
31911;BME280;18457;52.432;16.914;2023-03-22T10:45:53;100015.88;;;13.79;79.06
31911;BME280;18457;52.432;16.914;2023-03-22T10:48:29;100014.30;;;13.83;79.21
31911;BME280;18457;52.432;16.914;2023-03-22T10:51:03;100012.45;;;13.71;79.62
31911;BME280;18457;52.432;16.914;2023-03-22T10:53:35;100012.20;;;13.85;79.74
31911;BME280;18457;52.432;16.914;2023-03-22T10:56:13;100009.36;;;13.87;79.20
31911;BME280;18457;52.432;16.914;2023-03-22T10:58:47;100012.73;;;13.93;79.44
31911;BME280;18457;52.432;16.914;2023-03-22T11:01:28;100012.11;;;13.95;78.94
31911;BME280;18457;52.432;16.914;2023-03-22T11:04:07;100017.23;;;13.94;78.24
31911;BME280;18457;52.432;16.914;2023-03-22T11:06:49;100012.66;;;13.99;77.57
31911;BME280;18457;52.432;16.914;2023-03-22T11:09:25;100010.45;;;14.00;77.56
31911;BME280;18457;52.432;16.914;2023-03-22T11:11:58;100004.06;;;13.96;77.84
31911;BME280;18457;52.432;16.914;2023-03-22T11:14:32;100008.95;;;14.05;78.13
31911;BME280;18457;52.432;16.914;2023-03-22T11:17:11;100007.88;;;14.09;77.73
31911;BME280;18457;52.432;16.914;2023-03-22T11:19:53;100005.90;;;14.20;77.29
31911;BME280;18457;52.432;16.914;2023-03-22T11:22:32;100009.48;;;14.21;77.02
31911;BME280;18457;52.432;16.914;2023-03-22T11:25:14;100005.87;;;14.17;76.15
31911;BME280;18457;52.432;16.914;2023-03-22T11:27:52;100003.11;;;14.26;75.94
31911;BME280;18457;52.432;16.914;2023-03-22T11:30:27;100001.00;;;14.36;75.84
31911;BME280;18457;52.432;16.914;2023-03-22T11:33:14;100000.12;;;14.51;74.82
31911;BME280;18457;52.432;16.914;2023-03-22T11:35:53;99993.04;;;14.63;74.39
31911;BME280;18457;52.432;16.914;2023-03-22T11:38:30;99996.05;;;14.71;74.43
31911;BME280;18457;52.432;16.914;2023-03-22T11:41:09;99990.84;;;14.70;73.99
31911;BME280;18457;52.432;16.914;2023-03-22T11:43:47;99992.86;;;14.74;74.12
31911;BME280;18457;52.432;16.914;2023-03-22T11:46:24;99992.89;;;14.96;73.93
31911;BME280;18457;52.432;16.914;2023-03-22T11:48:57;99996.81;;;15.01;72.79
31911;BME280;18457;52.432;16.914;2023-03-22T11:51:32;99988.98;;;14.94;73.02
31911;BME280;18457;52.432;16.914;2023-03-22T11:54:09;99985.09;;;15.03;72.58
31911;BME280;18457;52.432;16.914;2023-03-22T11:56:48;99978.13;;;15.11;72.04
31911;BME280;18457;52.432;16.914;2023-03-22T11:59:25;99984.27;;;15.16;71.78
31911;BME280;18457;52.432;16.914;2023-03-22T12:02:02;99975.63;;;15.21;71.72
31911;BME280;18457;52.432;16.914;2023-03-22T12:04:39;99973.84;;;15.24;72.06
31911;BME280;18457;52.432;16.914;2023-03-22T12:07:15;99965.93;;;15.48;71.63
31911;BME280;18457;52.432;16.914;2023-03-22T12:09:53;99961.23;;;15.64;71.10
31911;BME280;18457;52.432;16.914;2023-03-22T12:12:31;99958.07;;;15.62;70.39
31911;BME280;18457;52.432;16.914;2023-03-22T12:15:09;99955.10;;;15.60;70.89
31911;BME280;18457;52.432;16.914;2023-03-22T12:17:46;99952.17;;;15.63;71.33
31911;BME280;18457;52.432;16.914;2023-03-22T12:20:28;99951.40;;;15.64;70.76
31911;BME280;18457;52.432;16.914;2023-03-22T12:23:07;99953.77;;;15.64;70.25
31911;BME280;18457;52.432;16.914;2023-03-22T12:25:41;99947.73;;;15.58;69.85
31911;BME280;18457;52.432;16.914;2023-03-22T12:28:18;99952.40;;;15.62;69.81
31911;BME280;18457;52.432;16.914;2023-03-22T12:30:53;99947.77;;;15.64;70.97
31911;BME280;18457;52.432;16.914;2023-03-22T12:33:30;99946.90;;;15.56;70.60
31911;BME280;18457;52.432;16.914;2023-03-22T12:36:06;99951.85;;;15.56;70.27
31911;BME280;18457;52.432;16.914;2023-03-22T12:38:41;99953.51;;;15.55;70.33
31911;BME280;18457;52.432;16.914;2023-03-22T12:41:22;99954.42;;;15.59;70.51
31911;BME280;18457;52.432;16.914;2023-03-22T12:43:58;99950.42;;;15.55;70.08
31911;BME280;18457;52.432;16.914;2023-03-22T12:46:34;99952.31;;;15.50;70.52
31911;BME280;18457;52.432;16.914;2023-03-22T12:49:12;99944.66;;;15.47;70.69
31911;BME280;18457;52.432;16.914;2023-03-22T12:51:49;99938.70;;;15.43;70.78
31911;BME280;18457;52.432;16.914;2023-03-22T12:54:25;99937.91;;;15.36;71.74
31911;BME280;18457;52.432;16.914;2023-03-22T12:56:58;99932.54;;;15.42;72.03
31911;BME280;18457;52.432;16.914;2023-03-22T12:59:32;99930.73;;;15.45;71.91
31911;BME280;18457;52.432;16.914;2023-03-22T13:02:13;99930.28;;;15.39;70.64
31911;BME280;18457;52.432;16.914;2023-03-22T13:04:54;99925.00;;;15.40;71.01
31911;BME280;18457;52.432;16.914;2023-03-22T13:07:51;99925.64;;;15.42;71.27
31911;BME280;18457;52.432;16.914;2023-03-22T13:10:48;99918.48;;;15.43;71.15
31911;BME280;18457;52.432;16.914;2023-03-22T13:13:45;99908.43;;;15.51;71.08
31911;BME280;18457;52.432;16.914;2023-03-22T13:16:51;99904.46;;;15.53;70.79
31911;BME280;18457;52.432;16.914;2023-03-22T13:19:51;99894.70;;;15.59;70.35
31911;BME280;18457;52.432;16.914;2023-03-22T13:22:27;99890.10;;;15.66;70.03
31911;BME280;18457;52.432;16.914;2023-03-22T13:25:13;99884.91;;;15.82;69.70
31911;BME280;18457;52.432;16.914;2023-03-22T13:28:00;99877.11;;;15.94;69.08
31911;BME280;18457;52.432;16.914;2023-03-22T13:30:35;99871.81;;;15.95;68.33
31911;BME280;18457;52.432;16.914;2023-03-22T13:33:26;99864.48;;;15.93;67.96
31911;BME280;18457;52.432;16.914;2023-03-22T13:36:02;99865.07;;;15.88;68.31
31911;BME280;18457;52.432;16.914;2023-03-22T13:38:40;99864.44;;;15.83;68.19
31911;BME280;18457;52.432;16.914;2023-03-22T13:41:19;99856.29;;;15.92;67.65